Time;durP1;ratioP1;P1;durP2;ratioP2;P2;SDS_P1;SDS_P2;PMS_P1;PMS_P2;Temp;Humidity;BMP_temperature;BMP_pressure;BME280_temperature;BME280_humidity;BME280_pressure;Samples;Min_cycle;Max_cycle;Signal;HPM_P1;HPM_P2
2022/03/21 00:00:39;;;;;;;14.20;10.40;;;9.10;38.80;;;9.60;35.65;98901.38;5025936;28;20045;-39
2022/03/21 00:03:10;;;;;;;16.20;10.50;;;9.10;38.90;;;9.60;35.88;98893.41;5026391;28;20049;-39
2022/03/21 00:05:39;;;;;;;15.80;10.67;;;9.20;39.00;;;9.59;36.00;98891.72;5027856;28;20053;-43
2022/03/21 00:08:07;;;;;;;16.30;10.43;;;9.20;39.10;;;9.58;35.97;98891.84;5025534;28;20033;-44
2022/03/21 00:10:35;;;;;;;15.27;10.63;;;9.10;39.20;;;9.55;36.16;98900.06;5026313;28;20071;-44
2022/03/21 00:13:04;;;;;;;15.70;10.87;;;9.10;39.30;;;9.51;36.27;98893.31;5042460;28;20268;-45
2022/03/21 00:15:32;;;;;;;15.20;10.67;;;9.00;39.90;;;9.44;36.34;98895.59;5026771;28;20128;-46
2022/03/21 00:18:02;;;;;;;17.07;10.43;;;8.90;39.80;;;9.38;36.12;98891.66;5025935;28;20303;-43
2022/03/21 00:20:32;;;;;;;16.13;10.53;;;8.90;39.70;;;9.36;36.34;98888.25;5026193;28;20186;-44
2022/03/21 00:23:02;;;;;;;13.13;9.50;;;8.90;39.50;;;9.37;36.18;98892.59;5026312;28;20049;-44
2022/03/21 00:25:30;;;;;;;15.53;10.10;;;8.90;39.30;;;9.39;36.16;98885.34;5026700;28;20064;-44
2022/03/21 00:27:58;;;;;;;17.00;9.70;;;9.00;39.00;;;9.41;36.19;98899.38;5026472;28;20347;-46
2022/03/21 00:30:27;;;;;;;15.70;10.27;;;9.00;38.90;;;9.43;36.08;98893.94;5024521;28;20137;-44
2022/03/21 00:32:55;;;;;;;16.93;11.43;;;9.10;39.10;;;9.42;35.97;98900.19;5024510;28;20274;-43
2022/03/21 00:35:24;;;;;;;16.17;10.40;;;9.10;39.10;;;9.39;36.00;98897.81;5025751;28;20136;-44
2022/03/21 00:37:52;;;;;;;14.60;10.60;;;9.00;39.30;;;9.34;36.46;98903.47;5024682;28;20049;-43
2022/03/21 00:40:20;;;;;;;17.27;11.83;;;8.90;39.50;;;9.31;36.55;98895.75;5023579;28;20057;-43
2022/03/21 00:42:50;;;;;;;15.10;10.37;;;8.80;39.90;;;9.26;36.57;98893.44;5026196;28;20045;-45
2022/03/21 00:45:27;;;;;;;18.20;12.07;;;8.80;40.30;;;9.18;36.72;98887.91;5026039;28;20060;-44
2022/03/21 00:47:55;;;;;;;17.00;12.40;;;8.70;40.60;;;9.13;36.81;98889.25;5025320;28;20053;-44
2022/03/21 00:50:25;;;;;;;16.37;10.77;;;8.60;40.60;;;9.07;37.12;98893.22;5025619;28;20067;-44
2022/03/21 00:52:56;;;;;;;18.37;11.80;;;8.50;41.20;;;9.00;37.16;98886.72;5023525;28;20049;-43
2022/03/21 00:55:26;;;;;;;18.23;12.03;;;8.40;41.20;;;8.87;37.43;98894.81;5025949;28;20075;-44
2022/03/21 00:57:54;;;;;;;18.13;11.53;;;8.20;41.80;;;8.73;37.40;98900.34;5025931;28;20267;-44
2022/03/21 01:00:25;;;;;;;18.87;11.60;;;8.00;42.10;;;8.64;37.89;98904.53;5026357;28;20151;-44
2022/03/21 01:02:55;;;;;;;16.03;12.03;;;8.00;42.50;;;8.57;37.83;98898.88;5024960;28;20058;-44
2022/03/21 01:05:24;;;;;;;15.63;11.43;;;7.90;42.80;;;8.55;37.96;98899.94;5041398;28;20053;-44
2022/03/21 01:07:52;;;;;;;16.73;11.80;;;8.00;42.80;;;8.51;38.33;98901.13;5023994;28;20061;-43
2022/03/21 01:10:22;;;;;;;18.00;11.20;;;7.90;43.20;;;8.46;38.17;98907.66;5025377;28;20063;-43
2022/03/21 01:12:51;;;;;;;15.27;11.23;;;7.90;43.30;;;8.43;38.27;98907.91;5025973;28;20067;-43
2022/03/21 01:15:22;;;;;;;18.33;11.67;;;7.90;43.00;;;8.36;38.45;98913.75;5025303;28;20057;-43
2022/03/21 01:17:50;;;;;;;17.90;11.47;;;7.70;43.40;;;8.29;38.63;98916.00;5025426;28;20052;-46
2022/03/21 01:20:21;;;;;;;16.10;10.97;;;7.60;43.30;;;8.21;38.60;98919.25;5024925;28;20059;-44
2022/03/21 01:22:50;;;;;;;20.53;12.13;;;7.60;44.10;;;8.17;38.96;98922.25;5026543;28;20045;-44
2022/03/21 01:25:18;;;;;;;16.03;11.73;;;7.50;44.50;;;8.17;39.04;98919.59;5025398;28;20045;-48
2022/03/21 01:27:47;;;;;;;19.27;11.87;;;7.50;44.40;;;8.16;38.84;98917.88;5024807;28;20053;-44
2022/03/21 01:30:16;;;;;;;17.57;11.27;;;7.50;44.30;;;8.13;38.79;98920.78;5024783;28;20067;-44
2022/03/21 01:32:45;;;;;;;16.27;10.50;;;7.50;44.20;;;8.09;39.10;98921.00;5025385;28;20518;-43
2022/03/21 01:35:17;;;;;;;16.30;10.57;;;7.50;43.90;;;8.07;38.50;98922.94;5025334;28;20258;-45
2022/03/21 01:37:46;;;;;;;20.13;11.90;;;7.50;44.10;;;8.04;39.15;98922.31;5023434;28;20068;-44
2022/03/21 01:40:16;;;;;;;16.30;11.53;;;7.40;44.20;;;7.99;39.36;98924.47;5025193;28;20067;-42
2022/03/21 01:42:47;;;;;;;16.73;10.43;;;7.40;45.10;;;7.92;39.65;98917.91;5025286;28;20042;-45
2022/03/21 01:45:17;;;;;;;20.80;12.03;;;7.20;45.60;;;7.85;40.02;98917.50;5022834;28;20045;-43
2022/03/21 01:47:47;;;;;;;20.00;13.30;;;7.10;46.00;;;7.79;39.93;98916.19;5025253;28;20076;-43
2022/03/21 01:50:15;;;;;;;45.30;26.43;;;7.00;46.40;;;7.75;40.42;98914.69;5024618;28;20049;-43
2022/03/21 01:52:44;;;;;;;26.20;16.67;;;7.10;46.30;;;7.69;40.50;98918.63;5024924;28;20065;-43
2022/03/21 01:58:00;;;;;;;21.17;12.63;;;7.00;45.70;;;7.69;39.79;98920.44;5023381;28;20049;-45
2022/03/21 02:00:29;;;;;;;19.53;11.70;;;7.10;45.50;;;7.70;40.05;98919.50;5024759;28;20132;-43
2022/03/21 02:02:57;;;;;;;19.40;11.53;;;7.00;45.60;;;7.67;40.00;98911.75;5027399;28;20055;-44
2022/03/21 02:05:27;;;;;;;16.27;11.17;;;7.00;45.90;;;7.64;40.41;98917.31;5028984;28;20049;-44
2022/03/21 02:07:55;;;;;;;15.50;10.47;;;7.00;45.90;;;7.59;40.33;98917.63;5027469;28;20155;-43
2022/03/21 02:10:23;;;;;;;17.63;11.33;;;7.00;45.90;;;7.61;40.58;98926.31;5028987;28;20478;-44
2022/03/21 02:12:50;;;;;;;18.17;12.57;;;7.00;46.40;;;7.61;40.43;98925.47;5027492;28;20071;-44
2022/03/21 02:15:20;;;;;;;15.13;10.57;;;7.00;46.60;;;7.60;40.77;98927.28;5028022;28;20064;-45
2022/03/21 02:17:51;;;;;;;16.23;10.80;;;7.10;46.50;;;7.59;40.35;98933.50;5029305;28;20081;-44
2022/03/21 02:20:20;;;;;;;15.80;10.73;;;7.10;46.30;;;7.60;40.34;98929.94;5011639;28;20053;-44
2022/03/21 02:23:08;;;;;;;17.00;10.97;;;7.10;46.30;;;7.60;40.58;98921.97;5029132;28;20068;-45
2022/03/21 02:25:41;;;;;;;17.97;11.20;;;7.10;46.10;;;7.61;40.29;98930.75;5027142;28;20045;-43
2022/03/21 02:28:12;;;;;;;;;;;7.10;45.90;;;7.56;40.96;98933.75;5028804;28;20068;-44
2022/03/21 02:30:50;;;;;;;16.73;11.17;;;7.10;48.50;;;7.57;40.54;98932.78;5026902;28;19939;-45
2022/03/21 02:33:18;;;;;;;17.13;10.83;;;7.00;46.70;;;7.55;40.45;98929.41;5027939;28;20075;-43
2022/03/21 02:35:49;;;;;;;21.77;11.90;;;7.10;46.00;;;7.52;40.40;98932.25;5026414;28;20059;-46
2022/03/21 02:38:19;;;;;;;19.87;11.33;;;6.90;46.10;;;7.46;40.96;98928.28;5027821;28;20043;-42
2022/03/21 02:40:47;;;;;;;14.77;10.50;;;6.90;46.40;;;7.43;40.97;98932.94;5028034;28;20057;-45
2022/03/21 02:43:15;;;;;;;18.33;11.03;;;6.80;46.90;;;7.41;41.14;98930.41;5028276;28;20049;-43
2022/03/21 02:45:43;;;;;;;17.60;10.97;;;6.80;46.90;;;7.41;41.08;98933.03;5027748;28;20146;-43
2022/03/21 02:48:14;;;;;;;17.20;12.27;;;6.90;47.00;;;7.41;40.79;98930.41;5027629;28;20060;-43
2022/03/21 02:50:55;;;;;;;18.40;11.87;;;6.90;46.80;;;7.38;41.02;98925.31;5028067;28;20053;-44
2022/03/21 02:53:24;;;;;;;18.40;12.10;;;6.90;47.60;;;7.35;41.40;98930.84;5028865;28;20063;-38
2022/03/21 02:55:56;;;;;;;18.67;10.80;;;6.80;47.40;;;7.26;41.45;98929.69;5028016;28;20251;-38
2022/03/21 02:58:25;;;;;;;19.37;12.70;;;6.60;48.10;;;7.21;41.64;98928.31;5026055;28;20053;-38
2022/03/21 03:01:04;;;;;;;16.37;11.13;;;6.50;47.80;;;7.18;41.35;98929.38;5028074;28;20050;-38
2022/03/21 03:03:32;;;;;;;16.43;11.43;;;6.50;48.10;;;7.13;41.95;98923.53;5026634;28;20053;-38
2022/03/21 03:06:00;;;;;;;16.50;10.80;;;6.50;48.20;;;7.09;41.87;98925.59;5027932;28;20085;-39
2022/03/21 03:08:28;;;;;;;13.67;10.73;;;6.40;48.00;;;7.07;41.63;98923.97;5027161;28;20053;-38
2022/03/21 03:10:57;;;;;;;14.87;9.90;;;6.40;47.70;;;7.06;41.74;98922.31;5027981;28;20053;-38
2022/03/21 03:13:25;;;;;;;16.13;10.40;;;6.50;47.70;;;7.03;41.39;98920.69;5025303;28;20382;-39
2022/03/21 03:15:53;;;;;;;17.00;10.50;;;6.50;47.20;;;7.06;41.33;98925.78;5027893;28;20053;-38
2022/03/21 03:18:20;;;;;;;16.47;9.43;;;6.50;46.80;;;7.12;41.71;98916.56;5027916;28;20041;-46
2022/03/21 03:20:52;;;;;;;17.70;10.83;;;6.60;46.40;;;7.17;41.22;98916.25;5027013;28;20243;-42
2022/03/21 03:23:26;;;;;;;16.63;10.70;;;6.80;46.30;;;7.22;41.56;98912.31;5028775;28;20055;-43
2022/03/21 03:26:03;;;;;;;15.45;10.40;;;6.90;46.00;;;7.25;41.18;98914.75;5027900;28;20132;-44
2022/03/21 03:28:32;;;;;;;16.47;10.17;;;6.90;45.90;;;7.22;40.47;98914.13;5027915;28;20053;-43
2022/03/21 03:31:17;;;;;;;15.97;10.77;;;6.80;45.60;;;7.24;40.86;98920.16;5026793;28;20057;-44
2022/03/21 03:33:46;;;;;;;15.70;9.85;;;6.80;45.50;;;7.22;41.06;98922.91;5027624;28;20055;-44
2022/03/21 03:36:16;;;;;;;15.60;10.43;;;6.70;45.70;;;7.22;41.13;98922.91;5026840;28;20061;-43
2022/03/21 03:38:45;;;;;;;18.27;10.97;;;6.80;45.90;;;7.24;41.12;98928.09;5027174;28;20071;-44
2022/03/21 03:41:15;;;;;;;14.00;10.03;;;6.80;45.80;;;7.21;40.67;98923.88;5025228;28;20064;-43
2022/03/21 03:43:44;;;;;;;16.73;10.77;;;6.70;45.60;;;7.19;41.14;98920.50;5027164;28;20051;-43
2022/03/21 03:46:12;;;;;;;17.10;10.30;;;6.70;45.80;;;7.20;40.64;98932.75;5026983;28;20139;-44
2022/03/21 03:48:41;;;;;;;17.77;11.97;;;6.70;46.00;;;7.21;41.03;98933.59;5027692;28;20470;-44
2022/03/21 03:51:11;;;;;;;14.80;10.97;;;6.80;45.90;;;7.20;40.74;98932.75;5026833;28;20057;-43
2022/03/21 03:53:40;;;;;;;15.53;11.67;;;6.70;45.90;;;7.19;41.41;98933.72;5027405;28;20049;-43
2022/03/21 03:56:08;;;;;;;14.80;9.73;;;6.70;46.10;;;7.19;41.05;98935.50;5026380;28;20056;-44
2022/03/21 03:58:38;;;;;;;17.83;10.30;;;6.70;45.90;;;7.18;40.80;98934.69;5026378;28;20049;-43
2022/03/21 04:01:06;;;;;;;16.87;10.53;;;6.80;45.60;;;7.24;40.73;98930.75;5042756;28;20056;-44
2022/03/21 04:03:46;;;;;;;15.73;10.60;;;6.80;45.50;;;7.24;40.93;98922.81;5024927;28;20053;-42
2022/03/21 04:06:19;;;;;;;14.37;10.20;;;6.90;45.60;;;7.27;40.84;98931.38;5026836;28;20120;-42
2022/03/21 04:08:51;;;;;;;16.53;10.30;;;6.90;45.40;;;7.21;41.05;98923.88;5026287;28;20075;-42
2022/03/21 04:11:19;;;;;;;15.83;10.87;;;7.00;45.00;;;7.27;41.04;98936.69;5024517;28;20259;-43
2022/03/21 04:13:47;;;;;;;17.47;10.90;;;7.10;45.10;;;7.30;41.27;98941.75;5026184;28;20359;-42
2022/03/21 04:16:16;;;;;;;16.67;11.00;;;7.10;45.00;;;7.36;40.69;98942.28;5025189;28;20054;-43
2022/03/21 04:18:44;;;;;;;18.40;12.00;;;7.10;45.40;;;7.36;40.82;98942.28;5025804;28;20075;-43
2022/03/21 04:21:26;;;;;;;22.70;13.33;;;7.00;45.20;;;7.34;40.82;98939.72;5025914;28;20060;-45
2022/03/21 04:23:56;;;;;;;19.27;11.90;;;6.90;45.40;;;7.34;40.79;98949.47;5025791;28;20050;-44
2022/03/21 04:26:26;;;;;;;19.10;11.43;;;6.90;45.70;;;7.29;41.03;98949.81;5026319;28;20045;-44
2022/03/21 04:28:55;;;;;;;17.07;10.10;;;6.80;45.70;;;7.27;40.71;98949.94;5026470;28;20057;-43
2022/03/21 04:31:23;;;;;;;16.63;10.33;;;6.80;45.70;;;7.27;40.54;98947.28;5026287;28;20568;-44
2022/03/21 04:33:52;;;;;;;15.50;10.00;;;6.80;45.30;;;7.30;41.07;98951.50;5025812;28;20049;-43
2022/03/21 04:36:19;;;;;;;15.30;10.23;;;6.80;45.30;;;7.29;41.02;98952.47;5026571;28;20492;-43
2022/03/21 04:38:47;;;;;;;15.53;11.10;;;6.80;45.60;;;7.26;40.87;98950.88;5026788;28;20049;-43
2022/03/21 04:41:15;;;;;;;14.57;10.57;;;6.80;45.60;;;7.25;41.56;98964.22;5027054;28;20045;-43
2022/03/21 04:43:43;;;;;;;17.73;11.43;;;6.80;45.70;;;7.23;41.10;98968.78;5025612;28;20239;-44
2022/03/21 04:46:11;;;;;;;17.60;11.80;;;6.80;45.70;;;7.21;41.12;98966.25;5026339;28;20046;-43
2022/03/21 04:48:39;;;;;;;16.00;11.10;;;6.80;45.50;;;7.18;40.77;98969.09;5025110;28;20219;-44
2022/03/21 04:51:07;;;;;;;14.70;10.60;;;6.70;45.80;;;7.14;41.03;98969.44;5025204;28;20049;-45
2022/03/21 04:53:35;;;;;;;18.40;11.57;;;6.60;45.90;;;7.08;40.75;98963.59;5027510;28;20068;-43
2022/03/21 04:56:03;;;;;;;14.73;9.53;;;6.50;46.00;;;7.04;40.79;98961.28;5026371;28;20064;-43
2022/03/21 04:58:31;;;;;;;14.70;10.30;;;6.50;46.00;;;7.03;41.43;98970.19;5025565;28;20048;-45
2022/03/21 05:01:00;;;;;;;15.20;9.97;;;6.50;46.10;;;7.00;41.29;98971.25;5025864;28;20049;-44
2022/03/21 05:03:29;;;;;;;20.00;11.27;;;6.50;46.40;;;6.98;41.67;98974.94;5024998;28;20239;-44
2022/03/21 05:05:57;;;;;;;17.43;11.07;;;6.50;46.60;;;6.96;40.97;98977.72;5025161;28;20050;-45
2022/03/21 05:08:25;;;;;;;16.07;11.03;;;6.50;46.50;;;6.95;41.15;98977.81;5026001;28;20049;-42
2022/03/21 05:10:53;;;;;;;15.93;10.30;;;6.40;46.50;;;6.94;40.82;98971.69;5025729;28;20071;-43
2022/03/21 05:13:21;;;;;;;18.17;10.83;;;6.50;46.50;;;6.93;41.00;98979.72;5025218;28;20064;-43
2022/03/21 05:15:49;;;;;;;16.53;10.33;;;6.50;46.60;;;6.92;41.45;98978.00;5025588;28;20055;-43
2022/03/21 05:18:17;;;;;;;20.23;12.37;;;6.40;46.70;;;6.90;41.71;98983.41;5023636;28;20045;-44
2022/03/21 05:20:45;;;;;;;17.40;11.03;;;6.40;46.80;;;6.88;41.32;98980.00;5024816;28;20057;-43
2022/03/21 05:31:32;;;;;;;17.13;10.60;;;6.20;47.00;;;6.73;41.90;98981.06;5025992;28;20060;-45
2022/03/21 05:36:47;;;;;;;21.07;13.83;;;6.20;47.30;;;6.68;41.64;98987.50;5025645;28;20048;-44
2022/03/21 05:39:15;;;;;;;19.67;12.63;;;6.20;47.50;;;6.68;42.02;98987.50;5024056;28;20056;-43
2022/03/21 05:41:43;;;;;;;20.93;12.87;;;6.20;47.60;;;6.69;41.85;98983.09;5023988;28;20236;-44
2022/03/21 05:44:11;;;;;;;18.93;11.33;;;6.30;47.70;;;6.69;42.28;98983.09;5025296;28;20133;-44
2022/03/21 05:46:39;;;;;;;20.20;11.53;;;6.30;47.70;;;6.69;42.06;98991.88;5025119;28;20328;-44
2022/03/21 05:49:07;;;;;;;16.77;11.00;;;6.20;47.70;;;6.71;42.47;98989.13;5024681;28;20053;-44
2022/03/21 05:51:37;;;;;;;17.30;11.80;;;6.30;47.90;;;6.71;42.19;98986.47;5023497;28;20077;-48
2022/03/21 05:54:08;;;;;;;20.00;11.40;;;6.20;47.90;;;6.72;42.10;98995.25;5024265;28;20063;-44
2022/03/21 05:56:41;;;;;;;17.27;11.37;;;6.30;48.00;;;6.71;42.38;98997.06;5024754;28;20052;-44
2022/03/21 06:01:56;;;;;;;16.33;10.17;;;6.30;48.00;;;6.71;42.78;99007.66;5026330;28;20326;-44
2022/03/21 06:04:24;;;;;;;18.07;12.27;;;6.30;47.90;;;6.72;42.68;99006.69;5024725;28;20205;-44
2022/03/21 06:06:52;;;;;;;18.67;11.90;;;6.30;47.90;;;6.73;42.75;99015.47;5024549;28;20053;-44
2022/03/21 06:09:20;;;;;;;19.00;11.50;;;6.30;47.90;;;6.74;42.95;99017.19;5023832;28;20247;-44
2022/03/21 06:11:50;;;;;;;17.27;11.33;;;6.30;48.00;;;6.77;42.21;99025.75;5026451;28;20244;-46
2022/03/21 06:14:18;;;;;;;19.33;11.27;;;6.40;47.70;;;6.77;42.65;99024.91;5024613;28;20060;-44
2022/03/21 06:16:48;;;;;;;16.20;9.80;;;6.40;47.70;;;6.75;42.30;99022.38;5024810;28;20121;-44
2022/03/21 06:19:18;;;;;;;18.63;11.00;;;6.40;48.10;;;6.77;42.21;99030.22;5024182;28;20344;-44
2022/03/21 06:21:46;;;;;;;19.10;12.23;;;6.30;48.20;;;6.73;42.80;99028.69;5023455;28;20324;-44
2022/03/21 06:24:14;;;;;;;27.27;11.60;;;6.30;48.50;;;6.72;42.91;99030.50;5024730;28;20061;-45
2022/03/21 06:26:42;;;;;;;15.23;11.07;;;6.30;48.70;;;6.74;42.94;99035.69;5024949;28;20059;-44
2022/03/21 06:29:10;;;;;;;16.07;10.87;;;6.30;48.70;;;6.73;43.19;99034.88;5024370;28;20056;-44
2022/03/21 06:31:38;;;;;;;19.00;11.23;;;6.40;48.40;;;6.74;42.94;99036.53;5025127;28;20228;-44
2022/03/21 06:34:06;;;;;;;16.13;10.07;;;6.40;48.40;;;6.74;42.87;99038.34;5022310;28;20141;-44
2022/03/21 06:36:34;;;;;;;19.10;12.57;;;6.40;48.30;;;6.78;42.54;99045.97;5024230;28;20061;-45
2022/03/21 06:39:03;;;;;;;15.13;10.43;;;6.40;48.10;;;6.84;43.10;99050.00;5024133;28;20228;-45
2022/03/21 06:41:30;;;;;;;17.50;11.03;;;6.50;48.10;;;6.86;42.48;99046.31;5024692;28;20064;-44
2022/03/21 06:43:58;;;;;;;18.23;11.20;;;6.50;48.30;;;6.92;43.15;99046.84;5024377;28;20049;-44
2022/03/21 06:46:27;;;;;;;16.27;10.63;;;6.60;48.20;;;6.93;42.91;99043.25;5024769;28;20049;-44
2022/03/21 06:48:55;;;;;;;15.70;10.90;;;6.50;48.50;;;6.95;43.00;99046.66;5027152;28;20053;-45
2022/03/21 06:51:26;;;;;;;15.83;10.90;;;6.60;48.40;;;6.96;43.35;99048.31;5027865;28;20052;-44
2022/03/21 06:53:54;;;;;;;17.33;10.83;;;6.60;48.30;;;6.96;42.78;99049.19;5027991;28;20067;-45
2022/03/21 06:56:22;;;;;;;16.23;10.83;;;6.60;48.20;;;6.99;43.04;99054.25;5026608;28;20125;-43
2022/03/21 06:58:50;;;;;;;15.93;11.27;;;6.60;48.00;;;7.02;42.56;99053.22;5028465;28;20067;-44
2022/03/21 07:01:17;;;;;;;17.20;11.27;;;6.70;47.80;;;7.05;42.59;99050.34;5026875;28;20289;-46
2022/03/21 07:03:45;;;;;;;18.10;11.23;;;6.80;47.60;;;7.11;42.67;99052.56;5026809;28;20063;-45
2022/03/21 07:06:13;;;;;;;18.67;12.33;;;6.80;47.60;;;7.15;42.91;99056.72;5028837;28;20217;-44
2022/03/21 07:08:41;;;;;;;18.07;10.23;;;6.80;47.70;;;7.20;43.11;99054.59;5027708;28;20624;-42
2022/03/21 07:11:12;;;;;;;15.27;10.70;;;6.90;48.30;;;7.23;43.05;99051.75;5027852;28;20059;-42
2022/03/21 07:13:40;;;;;;;14.17;10.43;;;6.90;48.60;;;7.27;43.37;99058.53;5028100;28;20057;-42
2022/03/21 07:16:10;;;;;;;20.47;12.37;;;7.00;48.50;;;7.32;43.61;99060.00;5026120;28;20063;-43
2022/03/21 07:18:38;;;;;;;18.63;12.53;;;7.00;48.70;;;7.33;43.31;99054.63;5027258;28;20363;-42
2022/03/21 07:21:05;;;;;;;21.77;13.27;;;7.00;48.70;;;7.38;43.23;99060.44;5028039;28;20221;-43
2022/03/21 07:23:34;;;;;;;19.03;11.53;;;7.10;48.70;;;7.40;43.66;99061.16;5028282;28;20061;-43
2022/03/21 07:26:04;;;;;;;20.10;12.33;;;7.10;49.00;;;7.44;43.60;99062.69;5027336;28;20248;-42
2022/03/21 07:28:32;;;;;;;23.67;12.07;;;7.20;49.10;;;7.46;43.33;99052.81;5027225;28;20071;-43
2022/03/21 07:31:20;;;;;;;20.23;12.33;;;7.20;49.10;;;7.49;43.42;99063.19;5028260;28;20122;-43
2022/03/21 07:33:48;;;;;;;18.40;11.70;;;7.20;49.10;;;7.58;43.44;99066.13;5026525;28;20049;-42
2022/03/21 07:36:16;;;;;;;20.10;10.70;;;7.30;48.90;;;7.62;43.68;99073.78;5027353;28;20053;-41
2022/03/21 07:38:44;;;;;;;18.10;11.90;;;7.40;48.80;;;7.68;43.41;99072.50;5028157;28;20080;-42
2022/03/21 07:41:12;;;;;;;24.00;12.63;;;7.50;48.90;;;7.71;43.65;99077.56;5027104;28;20075;-44
2022/03/21 07:43:40;;;;;;;20.50;12.13;;;7.50;49.00;;;7.76;43.39;99080.75;5026786;28;20061;-43
2022/03/21 07:48:55;;;;;;;17.20;11.50;;;7.60;48.80;;;7.85;43.68;99084.56;5027468;28;20045;-43
2022/03/21 07:51:23;;;;;;;18.40;12.13;;;7.60;49.00;;;7.89;43.96;99075.44;5026711;28;20053;-48
2022/03/21 07:53:51;;;;;;;19.87;13.37;;;7.70;49.10;;;7.97;43.99;99082.81;5026961;28;20332;-43
2022/03/21 07:56:23;;;;;;;17.77;11.33;;;7.80;49.30;;;8.01;44.18;99085.16;5026328;28;20061;-44
2022/03/21 07:58:51;;;;;;;20.13;12.00;;;7.90;49.70;;;8.06;44.28;99090.13;5026666;28;20069;-43
2022/03/21 08:01:19;;;;;;;17.87;11.57;;;7.90;49.80;;;8.09;44.22;99088.13;5028082;28;20053;-44
2022/03/21 08:03:47;;;;;;;19.87;11.23;;;8.00;49.90;;;8.13;44.18;99094.06;5026093;28;20366;-46
2022/03/21 08:06:16;;;;;;;15.63;11.33;;;8.00;49.90;;;8.17;44.43;99095.53;5026407;28;20060;-43
2022/03/21 08:08:43;;;;;;;21.17;11.13;;;8.00;50.30;;;8.19;44.52;99096.25;5025831;28;20476;-44
2022/03/21 08:11:11;;;;;;;17.30;11.33;;;8.00;50.10;;;8.23;44.61;99091.56;5026965;28;20254;-43
2022/03/21 08:13:39;;;;;;;22.97;13.10;;;8.10;50.20;;;8.27;44.48;99093.88;5025955;28;20061;-43
2022/03/21 08:16:07;;;;;;;19.73;12.70;;;8.10;50.20;;;8.29;44.38;99094.63;5026490;28;20053;-43
2022/03/21 08:18:37;;;;;;;16.77;11.87;;;8.20;50.20;;;8.35;44.43;99097.81;5026492;28;20052;-44
2022/03/21 08:21:05;;;;;;;15.20;11.33;;;8.20;50.10;;;8.41;44.25;99108.88;5024952;28;20049;-44
2022/03/21 08:23:34;;;;;;;16.57;11.70;;;8.30;49.60;;;8.46;44.16;99104.03;5026414;28;20294;-43
2022/03/21 08:26:01;;;;;;;16.70;11.50;;;8.40;49.50;;;8.50;44.32;99112.63;5026186;28;20565;-44
2022/03/21 08:28:29;;;;;;;18.60;11.63;;;8.40;49.50;;;8.58;44.22;99106.78;5026129;28;20519;-44
2022/03/21 08:30:57;;;;;;;19.20;11.33;;;8.50;49.40;;;8.64;44.04;99111.63;5026565;28;20057;-42
2022/03/21 08:33:25;;;;;;;19.10;11.57;;;8.50;49.10;;;8.71;43.99;99104.91;5026079;28;20057;-45
2022/03/21 08:35:53;;;;;;;18.40;11.13;;;8.70;48.90;;;8.76;43.61;99102.78;5025326;28;20053;-44
2022/03/21 08:38:27;;;;;;;16.75;10.68;;;8.70;48.50;;;8.82;43.60;99099.66;5019150;28;20355;-43
2022/03/21 08:40:56;;;;;;;17.80;12.27;;;8.80;48.20;;;8.89;43.46;99102.69;5012391;28;20053;-43
2022/03/21 08:43:25;;;;;;;17.53;11.77;;;8.80;47.90;;;8.93;43.07;99108.63;5025900;28;20045;-44
2022/03/21 08:45:52;;;;;;;20.53;12.33;;;8.90;47.50;;;9.00;43.01;99105.38;5024476;28;20055;-44
2022/03/21 08:49:23;;;;;;;18.37;12.77;;;9.00;47.40;;;9.03;43.02;99097.19;5026394;28;20328;-45
2022/03/21 08:51:08;;;;;;;18.87;12.03;;;9.00;47.40;;;9.11;42.94;99098.41;5025107;28;20052;-42
2022/03/21 08:53:36;;;;;;;20.80;12.13;;;9.10;47.50;;;9.15;42.88;99099.84;5025411;28;20049;-41
2022/03/21 08:56:05;;;;;;;17.33;12.30;;;9.10;47.20;;;9.19;42.96;99103.97;5024794;28;20049;-42
2022/03/21 08:58:33;;;;;;;19.70;11.97;;;9.20;47.40;;;9.25;43.00;99101.72;5025523;28;20045;-42
2022/03/21 09:01:00;;;;;;;15.87;11.80;;;9.20;47.30;;;9.32;42.95;99103.91;5033305;28;20045;-42
2022/03/21 09:03:28;;;;;;;19.97;12.00;;;9.30;47.30;;;9.37;42.80;99102.59;5035279;28;20045;-42
2022/03/21 09:05:56;;;;;;;18.67;11.80;;;9.40;47.20;;;9.42;42.71;99097.75;5032754;28;20055;-42
2022/03/21 09:08:24;;;;;;;18.70;12.03;;;9.40;47.00;;;9.48;42.93;99091.13;5034053;28;20057;-42
2022/03/21 09:10:52;;;;;;;18.67;11.60;;;9.50;46.70;;;9.55;42.66;99089.66;5034719;28;20071;-42
2022/03/21 09:13:20;;;;;;;18.37;12.70;;;9.60;46.60;;;9.61;42.75;99089.19;5033964;28;20057;-42
2022/03/21 09:15:48;;;;;;;21.07;11.97;;;9.60;46.50;;;9.68;42.29;99083.41;5030320;28;20051;-42
2022/03/21 09:18:16;;;;;;;15.17;10.80;;;9.70;46.40;;;9.73;42.77;99089.19;5017416;28;20069;-42
2022/03/21 09:20:44;;;;;;;18.63;13.80;;;9.80;46.30;;;9.77;42.23;99093.31;5003238;28;20054;-42
2022/03/21 09:23:12;;;;;;;17.57;11.90;;;9.80;46.30;;;9.83;42.55;99093.69;5003868;28;20247;-42
2022/03/21 09:25:39;;;;;;;18.50;13.00;;;9.90;46.40;;;9.88;42.27;99082.66;5010336;28;20059;-42
2022/03/21 09:28:08;;;;;;;17.90;12.53;;;10.00;46.40;;;9.96;42.68;99085.56;5024951;28;20174;-42
2022/03/21 09:30:39;;;;;;;18.80;12.73;;;10.00;46.40;;;10.03;42.65;99092.09;5024857;28;20131;-42
2022/03/21 09:33:07;;;;;;;17.63;13.23;;;10.10;46.50;;;10.09;42.56;99088.09;5025385;28;20052;-42
2022/03/21 09:35:37;;;;;;;16.30;11.20;;;10.20;46.30;;;10.13;42.67;99083.38;5010813;28;20068;-42
2022/03/21 09:38:05;;;;;;;18.87;14.10;;;10.20;46.40;;;10.18;42.62;99084.69;5004451;28;20056;-42
2022/03/21 09:40:32;;;;;;;17.70;12.20;;;10.30;46.60;;;10.26;42.61;99078.75;5004867;28;20045;-42
2022/03/21 09:43:01;;;;;;;18.73;12.73;;;10.40;46.50;;;10.34;42.38;99088.81;5005352;28;20053;-42
2022/03/21 09:45:29;;;;;;;17.87;12.53;;;10.40;46.50;;;10.40;42.53;99085.66;5005319;28;20075;-42
2022/03/21 09:48:09;;;;;;;20.60;11.83;;;10.50;46.40;;;10.48;42.46;99079.72;5004180;28;20232;-42
2022/03/21 09:50:40;;;;;;;19.07;13.13;;;10.50;46.50;;;10.56;42.43;99083.41;5004081;28;20232;-42
2022/03/21 09:53:11;;;;;;;18.43;12.27;;;10.70;46.50;;;10.60;41.98;99087.53;5004734;28;20229;-41
2022/03/21 09:55:40;;;;;;;19.40;12.93;;;10.70;46.20;;;10.63;42.05;99084.63;5005960;28;20163;-41
2022/03/21 09:58:11;;;;;;;22.60;13.70;;;10.70;46.20;;;10.68;41.97;99078.91;5004818;28;20045;-41
2022/03/21 10:00:40;;;;;;;22.00;13.30;;;10.80;45.90;;;10.72;42.45;99079.50;5004906;28;20248;-42
2022/03/21 10:03:09;;;;;;;19.77;13.83;;;10.80;46.00;;;10.76;42.17;99078.25;5005468;28;20084;-41
2022/03/21 10:05:43;;;;;;;21.47;14.47;;;10.80;45.80;;;10.82;41.06;99083.09;5004044;28;20648;-41
2022/03/21 10:08:20;;;;;;;;;;;10.90;45.30;;;10.84;41.66;99083.81;5005410;28;20219;-41
2022/03/21 10:11:02;;;;;;;21.70;12.50;;;10.90;44.90;;;10.93;41.72;99077.69;5004386;28;19925;-40
2022/03/21 10:13:40;;;;;;;21.07;12.50;;;11.00;45.40;;;11.00;41.69;99075.38;5024213;28;20148;-41
2022/03/21 10:16:17;;;;;;;21.40;12.73;;;11.10;45.30;;;11.06;41.28;99074.84;5026866;28;20057;-40
2022/03/21 10:18:53;;;;;;;23.27;13.23;;;11.20;45.00;;;11.15;41.14;99070.59;5043324;28;20226;-40
2022/03/21 10:21:28;;;;;;;19.77;13.10;;;11.30;45.00;;;11.22;41.02;99075.28;5033417;28;20061;-41
2022/03/21 10:24:07;;;;;;;18.37;12.37;;;11.30;44.80;;;11.28;41.29;99079.22;5025587;28;20057;-40
2022/03/21 10:26:44;;;;;;;23.37;13.53;;;11.40;44.00;;;11.31;40.98;99072.78;5029666;28;20059;-41
2022/03/21 10:29:17;;;;;;;19.63;11.50;;;11.40;44.30;;;11.36;41.26;99075.88;5012070;28;20117;-41
2022/03/21 10:31:48;;;;;;;25.45;12.75;;;11.50;44.50;;;11.42;40.89;99076.22;5028641;28;20045;-40
2022/03/21 10:34:20;;;;;;;22.10;13.20;;;11.60;44.50;;;11.49;40.63;99070.34;5026554;28;20058;-41
2022/03/21 10:37:08;;;;;;;20.67;13.20;;;11.60;44.20;;;11.54;40.84;99070.81;5028210;28;20068;-40
2022/03/21 10:39:39;;;;;;;22.63;12.70;;;11.70;43.40;;;11.56;40.22;99069.69;5027697;28;20142;-40
2022/03/21 10:42:09;;;;;;;18.50;13.17;;;11.70;43.90;;;11.61;40.39;99063.94;5028376;28;20052;-40
2022/03/21 10:44:38;;;;;;;20.73;12.90;;;11.70;43.60;;;11.65;40.47;99064.53;5027860;28;20045;-40
2022/03/21 10:47:07;;;;;;;22.85;12.45;;;11.70;43.40;;;11.69;40.08;99061.47;5027602;28;20143;-40